Time;durP1;ratioP1;P1;durP2;ratioP2;P2;SDS_P1;SDS_P2;PMS_P1;PMS_P2;Temp;Humidity;BMP_temperature;BMP_pressure;BME280_temperature;BME280_humidity;BME280_pressure;Samples;Min_cycle;Max_cycle;Signal;HPM_P1;HPM_P2
2023/02/18 00:01:03;;;;;;;;;;;;;;;;;;4934384;29;20527;-89
2023/02/18 00:03:50;;;;;;;;;;;;;;;;;;4934050;29;19921;-88
2023/02/18 00:06:37;;;;;;;;;;;;;;;;;;4935104;29;19959;-90
2023/02/18 00:09:24;;;;;;;;;;;;;;;;;;4937394;29;20354;-89
2023/02/18 00:12:11;;;;;;;;;;;;;;;;;;4927725;29;19910;-89
2023/02/18 00:14:57;;;;;;;;;;;;;;;;;;4926507;29;19930;-89
2023/02/18 00:17:44;;;;;;;;;;;;;;;;;;4924588;29;19911;-89
2023/02/18 00:20:32;;;;;;;;;;;;;;;;;;4937538;29;19922;-88
2023/02/18 00:23:18;;;;;;;;;;;;;;;;;;4935970;29;19918;-89
2023/02/18 00:26:05;;;;;;;;;;;;;;;;;;4932361;29;19918;-89
2023/02/18 00:28:51;;;;;;;;;;;;;;;;;;4942600;29;20200;-91
2023/02/18 00:31:39;;;;;;;;;;;;;;;;;;4929262;29;19926;-87
2023/02/18 00:34:25;;;;;;;;;;;;;;;;;;4934883;29;19914;-88
2023/02/18 00:37:11;;;;;;;;;;;;;;;;;;4927797;29;19919;-90
2023/02/18 00:39:58;;;;;;;;;;;;;;;;;;4941339;29;19914;-86
2023/02/18 00:42:44;;;;;;;;;;;;;;;;;;4924766;29;19911;-91
2023/02/18 00:45:31;;;;;;;;;;;;;;;;;;4912189;29;19925;-87
2023/02/18 00:48:17;;;;;;;;;;;;;;;;;;4930519;29;19929;-90
2023/02/18 00:51:04;;;;;;;;;;;;;;;;;;4943464;29;19922;-89
2023/02/18 00:53:50;;;;;;;;;;;;;;;;;;4921953;29;19923;-91
2023/02/18 00:56:37;;;;;;;;;;;;;;;;;;4933846;28;19914;-90
2023/02/18 00:59:23;;;;;;;;;;;;;;;;;;4931789;29;19914;-89
2023/02/18 01:02:10;;;;;;;;;;;;;;;;;;4932705;29;19941;-89
2023/02/18 01:04:56;;;;;;;;;;;;;;;;;;4939605;29;19926;-88
2023/02/18 01:07:43;;;;;;;;;;;;;;;;;;4933691;29;19933;-89
2023/02/18 01:10:29;;;;;;;;;;;;;;;;;;4932712;29;19914;-90
2023/02/18 01:13:16;;;;;;;;;;;;;;;;;;4929170;28;19914;-89
2023/02/18 01:16:02;;;;;;;;;;;;;;;;;;4943091;28;20013;-88
2023/02/18 01:18:49;;;;;;;;;;;;;;;;;;4931380;29;19915;-88
2023/02/18 01:21:35;;;;;;;;;;;;;;;;;;4944844;29;19911;-90
2023/02/18 01:24:22;;;;;;;;;;;;;;;;;;4929000;29;19914;-88
2023/02/18 01:27:08;;;;;;;;;;;;;;;;;;4934357;29;19918;-90
2023/02/18 01:29:55;;;;;;;;;;;;;;;;;;4935909;29;20330;-90
2023/02/18 01:32:41;;;;;;;;;;;;;;;;;;4946962;29;19919;-90
2023/02/18 01:35:28;;;;;;;;;;;;;;;;;;4918763;29;19921;-90
2023/02/18 01:38:14;;;;;;;;;;;;;;;;;;4932472;29;19915;-91
2023/02/18 01:41:01;;;;;;;;;;;;;;;;;;4932906;29;19914;-92
2023/02/18 01:43:47;;;;;;;;;;;;;;;;;;4933965;29;19922;-91
2023/02/18 01:46:34;;;;;;;;;;;;;;;;;;4933938;28;20374;-89
2023/02/18 01:49:20;;;;;;;;;;;;;;;;;;4933007;29;20272;-89
2023/02/18 01:52:07;;;;;;;;;;;;;;;;;;4937267;29;19914;-87
2023/02/18 01:54:53;;;;;;;;;;;;;;;;;;4939597;29;19918;-87
2023/02/18 01:57:40;;;;;;;;;;;;;;;;;;4948382;29;19915;-86
2023/02/18 02:00:26;;;;;;;;;;;;;;;;;;4949421;29;20358;-87
2023/02/18 02:03:13;;;;;;;;;;;;;;;;;;4939957;29;19910;-87
2023/02/18 02:05:59;;;;;;;;;;;;;;;;;;4931075;29;20385;-87
2023/02/18 02:08:46;;;;;;;;;;;;;;;;;;4949002;29;19937;-87
2023/02/18 02:11:32;;;;;;;;;;;;;;;;;;4935984;29;19921;-88
2023/02/18 02:14:19;;;;;;;;;;;;;;;;;;4943263;28;19953;-87
2023/02/18 02:17:05;;;;;;;;;;;;;;;;;;4939256;29;19978;-88
2023/02/18 02:19:52;;;;;;;;;;;;;;;;;;4931300;29;20747;-88
2023/02/18 02:22:38;;;;;;;;;;;;;;;;;;4941014;28;19911;-87
2023/02/18 02:25:25;;;;;;;;;;;;;;;;;;4933665;28;19910;-88
2023/02/18 02:28:11;;;;;;;;;;;;;;;;;;4955116;28;19922;-89
2023/02/18 02:30:58;;;;;;;;;;;;;;;;;;4932196;29;19921;-88
2023/02/18 02:33:44;;;;;;;;;;;;;;;;;;4933856;29;19917;-89
2023/02/18 02:36:31;;;;;;;;;;;;;;;;;;4933845;29;19918;-89
2023/02/18 02:39:17;;;;;;;;;;;;;;;;;;4949935;29;19941;-92
2023/02/18 02:42:04;;;;;;;;;;;;;;;;;;4935182;29;19919;-90
2023/02/18 02:44:50;;;;;;;;;;;;;;;;;;4922922;29;19910;-91
2023/02/18 02:47:37;;;;;;;;;;;;;;;;;;4944892;29;19923;-91
2023/02/18 02:50:23;;;;;;;;;;;;;;;;;;4935728;29;19922;-90
2023/02/18 02:53:10;;;;;;;;;;;;;;;;;;4943529;29;19914;-91
2023/02/18 02:55:56;;;;;;;;;;;;;;;;;;4936742;29;19921;-91
2023/02/18 02:58:43;;;;;;;;;;;;;;;;;;4935662;29;19914;-91
2023/02/18 03:01:29;;;;;;;;;;;;;;;;;;4921487;29;19922;-91
2023/02/18 03:04:16;;;;;;;;;;;;;;;;;;4931569;29;20552;-90
2023/02/18 03:07:02;;;;;;;;;;;;;;;;;;4942167;29;19931;-91
2023/02/18 03:09:49;;;;;;;;;;;;;;;;;;4936056;29;20565;-91
2023/02/18 03:12:35;;;;;;;;;;;;;;;;;;4936393;29;19911;-89
2023/02/18 03:15:22;;;;;;;;;;;;;;;;;;4929965;29;19926;-89
2023/02/18 03:18:08;;;;;;;;;;;;;;;;;;4925293;29;20394;-89
2023/02/18 03:20:55;;;;;;;;;;;;;;;;;;4935717;29;19915;-89
2023/02/18 03:23:41;;;;;;;;;;;;;;;;;;4949601;29;19914;-90
2023/02/18 03:26:28;;;;;;;;;;;;;;;;;;4925354;29;19914;-89
2023/02/18 03:29:14;;;;;;;;;;;;;;;;;;4936164;28;19960;-89
2023/02/18 03:32:01;;;;;;;;;;;;;;;;;;4922705;29;19921;-90
2023/02/18 03:34:47;;;;;;;;;;;;;;;;;;4929892;29;19921;-88
2023/02/18 03:37:34;;;;;;;;;;;;;;;;;;4927724;29;19921;-88
2023/02/18 03:40:20;;;;;;;;;;;;;;;;;;4936827;29;20229;-90
2023/02/18 03:43:07;;;;;;;;;;;;;;;;;;4938432;29;20641;-91
2023/02/18 03:45:53;;;;;;;;;;;;;;;;;;4935946;29;19911;-91
2023/02/18 03:48:40;;;;;;;;;;;;;;;;;;4944042;29;19922;-92
2023/02/18 03:51:26;;;;;;;;;;;;;;;;;;4934793;29;19915;-90
2023/02/18 03:54:13;;;;;;;;;;;;;;;;;;4933202;29;20313;-89
2023/02/18 03:57:00;;;;;;;;;;;;;;;;;;4936385;29;19925;-89
2023/02/18 03:59:46;;;;;;;;;;;;;;;;;;4936031;29;19914;-89
2023/02/18 04:02:32;;;;;;;;;;;;;;;;;;4934296;29;19925;-89
2023/02/18 04:05:19;;;;;;;;;;;;;;;;;;4933626;29;19924;-90
2023/02/18 04:08:05;;;;;;;;;;;;;;;;;;4936265;29;19926;-89
2023/02/18 04:10:52;;;;;;;;;;;;;;;;;;4921714;29;20488;-89
2023/02/18 04:13:38;;;;;;;;;;;;;;;;;;4945501;29;19914;-90
2023/02/18 04:16:25;;;;;;;;;;;;;;;;;;4942498;28;19917;-90
2023/02/18 04:19:11;;;;;;;;;;;;;;;;;;4936788;29;19922;-90
2023/02/18 04:21:58;;;;;;;;;;;;;;;;;;4930911;29;19921;-89
2023/02/18 04:24:44;;;;;;;;;;;;;;;;;;4934527;29;19911;-90
2023/02/18 04:27:31;;;;;;;;;;;;;;;;;;4928964;29;20759;-93
2023/02/18 04:30:17;;;;;;;;;;;;;;;;;;4948449;29;19925;-89
2023/02/18 04:33:04;;;;;;;;;;;;;;;;;;4925889;29;19918;-94
2023/02/18 04:35:50;;;;;;;;;;;;;;;;;;4936599;28;19911;-94
2023/02/18 04:38:37;;;;;;;;;;;;;;;;;;4927708;29;19936;-89
2023/02/18 04:41:24;;;;;;;;;;;;;;;;;;4933779;29;20271;-89
2023/02/18 04:44:10;;;;;;;;;;;;;;;;;;4939734;29;19911;-89
2023/02/18 04:46:57;;;;;;;;;;;;;;;;;;4939642;29;19920;-88
2023/02/18 04:49:43;;;;;;;;;;;;;;;;;;4935803;29;19922;-88
2023/02/18 04:52:30;;;;;;;;;;;;;;;;;;4943257;29;19911;-88
2023/02/18 04:55:16;;;;;;;;;;;;;;;;;;4943911;29;19921;-91
2023/02/18 04:58:03;;;;;;;;;;;;;;;;;;4931463;29;19918;-89
2023/02/18 05:00:49;;;;;;;;;;;;;;;;;;4931515;29;19917;-88
2023/02/18 05:03:36;;;;;;;;;;;;;;;;;;4946555;29;19914;-88
2023/02/18 05:06:22;;;;;;;;;;;;;;;;;;4936249;29;19923;-90
2023/02/18 05:09:09;;;;;;;;;;;;;;;;;;4934158;29;19922;-90
2023/02/18 05:11:55;;;;;;;;;;;;;;;;;;4938086;29;20411;-83
2023/02/18 05:14:42;;;;;;;;;;;;;;;;;;4928036;29;19914;-83
2023/02/18 05:17:28;;;;;;;;;;;;;;;;;;4933585;29;19915;-84
2023/02/18 05:20:15;;;;;;;;;;;;;;;;;;4934979;29;19921;-84
2023/02/18 05:23:01;;;;;;;;;;;;;;;;;;4930882;29;19910;-83
2023/02/18 05:25:48;;;;;;;;;;;;;;;;;;4948967;29;20347;-83
2023/02/18 05:28:34;;;;;;;;;;;;;;;;;;4939675;29;19929;-83
2023/02/18 05:31:21;;;;;;;;;;;;;;;;;;4931891;29;20456;-84
2023/02/18 05:34:07;;;;;;;;;;;;;;;;;;4953071;28;19914;-84
2023/02/18 05:36:54;;;;;;;;;;;;;;;;;;4933033;29;19914;-83
2023/02/18 05:39:40;;;;;;;;;;;;;;;;;;4932067;29;19914;-84
2023/02/18 05:42:27;;;;;;;;;;;;;;;;;;4951540;29;19914;-85
2023/02/18 05:45:13;;;;;;;;;;;;;;;;;;4929238;29;19926;-86
2023/02/18 05:48:00;;;;;;;;;;;;;;;;;;4929526;29;19926;-85
2023/02/18 05:50:46;;;;;;;;;;;;;;;;;;4932534;29;19918;-84
2023/02/18 05:53:33;;;;;;;;;;;;;;;;;;4951978;29;19926;-84
2023/02/18 05:56:19;;;;;;;;;;;;;;;;;;4931493;29;19915;-83
2023/02/18 05:59:09;;;;;;;;;;;;;;;;;;4940740;29;20294;-84
2023/02/18 06:01:55;;;;;;;;;;;;;;;;;;4931717;29;19911;-86
2023/02/18 06:04:42;;;;;;;;;;;;;;;;;;4947482;29;19914;-87
2023/02/18 06:07:28;;;;;;;;;;;;;;;;;;4928251;29;19942;-87
2023/02/18 06:10:16;;;;;;;;;;;;;;;;;;4939797;29;20276;-86
2023/02/18 06:13:03;;;;;;;;;;;;;;;;;;4937040;29;19919;-85
2023/02/18 06:15:49;;;;;;;;;;;;;;;;;;4938320;28;19929;-85
2023/02/18 06:18:36;;;;;;;;;;;;;;;;;;4933667;29;19929;-84
2023/02/18 06:21:22;;;;;;;;;;;;;;;;;;4927239;29;19918;-84
2023/02/18 06:24:09;;;;;;;;;;;;;;;;;;4940906;29;19911;-84
2023/02/18 06:26:55;;;;;;;;;;;;;;;;;;4936581;29;19918;-84
2023/02/18 06:29:42;;;;;;;;;;;;;;;;;;4950735;29;19930;-85
2023/02/18 06:32:28;;;;;;;;;;;;;;;;;;4933041;28;19949;-85
2023/02/18 06:35:15;;;;;;;;;;;;;;;;;;4927022;29;19930;-84
2023/02/18 06:38:01;;;;;;;;;;;;;;;;;;4930217;29;19914;-86
2023/02/18 06:40:48;;;;;;;;;;;;;;;;;;4938355;29;19915;-85
2023/02/18 06:43:35;;;;;;;;;;;;;;;;;;4939092;29;19922;-83
2023/02/18 06:46:21;;;;;;;;;;;;;;;;;;4939322;29;19919;-84
2023/02/18 06:49:07;;;;;;;;;;;;;;;;;;4944423;29;19918;-85
2023/02/18 06:51:54;;;;;;;;;;;;;;;;;;4931599;29;19915;-85
2023/02/18 06:54:40;;;;;;;;;;;;;;;;;;4941572;29;20437;-84
2023/02/18 06:57:27;;;;;;;;;;;;;;;;;;4937600;29;19918;-86
2023/02/18 07:00:13;;;;;;;;;;;;;;;;;;4939151;29;19925;-84
2023/02/18 07:03:00;;;;;;;;;;;;;;;;;;4933621;29;19921;-83
2023/02/18 07:05:46;;;;;;;;;;;;;;;;;;4939745;29;19925;-83
2023/02/18 07:08:36;;;;;;;;;;;;;;;;;;4937498;29;19940;-85
2023/02/18 07:11:22;;;;;;;;;;;;;;;;;;4925595;29;19922;-93
2023/02/18 07:14:09;;;;;;;;;;;;;;;;;;4947103;29;20306;-94
2023/02/18 07:16:55;;;;;;;;;;;;;;;;;;4944056;29;19915;-92
2023/02/18 07:19:42;;;;;;;;;;;;;;;;;;4936892;29;19936;-93
2023/02/18 07:22:28;;;;;;;;;;;;;;;;;;4939480;29;19914;-92
2023/02/18 07:25:15;;;;;;;;;;;;;;;;;;4941181;29;19918;-93
2023/02/18 07:28:01;;;;;;;;;;;;;;;;;;4939407;29;19923;-91
2023/02/18 07:30:48;;;;;;;;;;;;;;;;;;4949964;29;20286;-92
2023/02/18 07:33:34;;;;;;;;;;;;;;;;;;4953949;28;19914;-93
2023/02/18 07:36:21;;;;;;;;;;;;;;;;;;4946368;29;19938;-93
2023/02/18 07:39:07;;;;;;;;;;;;;;;;;;4945186;29;19919;-91
2023/02/18 07:41:54;;;;;;;;;;;;;;;;;;4940507;29;19928;-95
2023/02/18 07:44:40;;;;;;;;;;;;;;;;;;4929973;29;19919;-91
2023/02/18 07:47:27;;;;;;;;;;;;;;;;;;4928400;29;19923;-87
2023/02/18 07:50:13;;;;;;;;;;;;;;;;;;4944975;29;19918;-89
2023/02/18 07:53:00;;;;;;;;;;;;;;;;;;4935047;29;19922;-86
2023/02/18 07:55:49;;;;;;;;;;;;;;;;;;4936015;29;19914;-89
2023/02/18 07:58:35;;;;;;;;;;;;;;;;;;4939804;29;20015;-88
2023/02/18 08:01:22;;;;;;;;;;;;;;;;;;4938894;29;19922;-89
2023/02/18 08:04:08;;;;;;;;;;;;;;;;;;4934149;29;20446;-89
2023/02/18 08:06:55;;;;;;;;;;;;;;;;;;4937433;29;19933;-87
2023/02/18 08:09:41;;;;;;;;;;;;;;;;;;4939840;29;19922;-88
2023/02/18 08:12:28;;;;;;;;;;;;;;;;;;4924711;29;19918;-88
2023/02/18 08:15:14;;;;;;;;;;;;;;;;;;4939152;28;19914;-88
2023/02/18 08:18:01;;;;;;;;;;;;;;;;;;4925607;29;19922;-87
2023/02/18 08:20:47;;;;;;;;;;;;;;;;;;4939721;28;19953;-89
2023/02/18 08:23:34;;;;;;;;;;;;;;;;;;4939328;29;20378;-89
2023/02/18 08:26:20;;;;;;;;;;;;;;;;;;4940284;29;19921;-88
2023/02/18 08:29:07;;;;;;;;;;;;;;;;;;4929330;29;19919;-90
2023/02/18 08:31:55;;;;;;;;;;;;;;;;;;4941676;29;19982;-90
2023/02/18 08:34:42;;;;;;;;;;;;;;;;;;4943211;28;19915;-89
2023/02/18 08:37:28;;;;;;;;;;;;;;;;;;4943647;29;19910;-89
2023/02/18 08:40:15;;;;;;;;;;;;;;;;;;4939548;29;19918;-90
2023/02/18 08:43:01;;;;;;;;;;;;;;;;;;4944923;29;19925;-89
2023/02/18 08:45:48;;;;;;;;;;;;;;;;;;4944440;29;19915;-88
2023/02/18 08:48:34;;;;;;;;;;;;;;;;;;4943918;29;19932;-88
2023/02/18 08:51:21;;;;;;;;;;;;;;;;;;4943482;29;19957;-88
2023/02/18 08:54:07;;;;;;;;;;;;;;;;;;4943812;29;20017;-80
2023/02/18 08:56:54;;;;;;;;;;;;;;;;;;4942024;29;19929;-77
2023/02/18 08:59:41;;;;;;;;;;;;;;;;;;4942665;29;19918;-78
2023/02/18 09:02:17;;;;;;;;;;;;;;;;;;4944370;29;19929;-79
2023/02/18 09:04:44;;;;;;;;;;;;;;;;;;4924403;29;19926;-79
2023/02/18 09:07:10;;;;;;;;;;;;;;;;;;4915239;29;20692;-79
2023/02/18 09:09:36;;;;;;;;;;;;;;;;;;4918684;29;20017;-83
2023/02/18 09:12:02;;;;;;;;;;;;;;;;;;4903618;29;19937;-79
2023/02/18 09:14:28;;;;;;;;;;;;;;;;;;4921391;29;20385;-79
2023/02/18 09:17:02;;;;;;;;;;;;;;;;;;4919566;29;20303;-79
2023/02/18 09:19:29;;;;;;;;;;;;;;;;;;4902722;29;19926;-77
2023/02/18 09:21:56;;;;;;;;;;;;;;;;;;4900852;29;19919;-77
2023/02/18 09:24:23;;;;;;;;;;;;;;;;;;4905735;29;19927;-76
2023/02/18 09:26:49;;;;;;;;;;;;;;;;;;4903121;29;20387;-77
2023/02/18 09:29:17;;;;;;;;;;;;;;;;;;4904837;29;19918;-76
2023/02/18 09:31:46;;;;;;;;;;;;;;;;;;4899329;29;19937;-76
2023/02/18 09:34:12;;;;;;;;;;;;;;;;;;4920400;29;19950;-75
2023/02/18 09:36:38;;;;;;;;;;;;;;;;;;4919564;29;19923;-76
2023/02/18 09:39:05;;;;;;;;;;;;;;;;;;4918536;29;19923;-76
2023/02/18 09:41:31;;;;;;;;;;;;;;;;;;4921555;29;19915;-76
2023/02/18 09:43:57;;;;;;;;;;;;;;;;;;4899543;29;19919;-76
2023/02/18 09:46:24;;;;;;;;;;;;;;;;;;4921413;29;19927;-76
2023/02/18 09:48:50;;;;;;;;;;;;;;;;;;4921254;29;20018;-76
2023/02/18 09:51:17;;;;;;;;;;;;;;;;;;4918952;29;19934;-77
2023/02/18 09:53:46;;;;;;;;;;;;;;;;;;4934333;29;19919;-77
2023/02/18 09:56:12;;;;;;;;;;;;;;;;;;4919497;29;19930;-77
2023/02/18 09:58:39;;;;;;;;;;;;;;;;;;4901493;29;19978;-76
2023/02/18 10:01:05;;;;;;;;;;;;;;;;;;4911556;29;19933;-77
2023/02/18 10:03:31;;;;;;;;;;;;;;;;;;4915321;29;19923;-77
2023/02/18 10:05:58;;;;;;;;;;;;;;;;;;4915309;29;19919;-77
2023/02/18 10:08:24;;;;;;;;;;;;;;;;;;4914317;29;19942;-77
2023/02/18 10:10:50;;;;;;;;;;;;;;;;;;4903896;29;19919;-76
2023/02/18 10:13:17;;;;;;;;;;;;;;;;;;4923827;29;19922;-78
2023/02/18 10:15:43;;;;;;;;;;;;;;;;;;4937046;28;19919;-78
2023/02/18 10:18:10;;;;;;;;;;;;;;;;;;4903754;29;19919;-78
2023/02/18 10:20:36;;;;;;;;;;;;;;;;;;4921158;29;19930;-78
2023/02/18 10:23:04;;;;;;;;;;;;;;;;;;4923660;29;19931;-78
2023/02/18 10:25:30;;;;;;;;;;;;;;;;;;4907200;29;19942;-76
2023/02/18 10:27:56;;;;;;;;;;;;;;;;;;4924050;29;20527;-75
2023/02/18 10:30:23;;;;;;;;;;;;;;;;;;4906287;29;19998;-76
2023/02/18 10:32:49;;;;;;;;;;;;;;;;;;4922225;29;19989;-77
2023/02/18 10:35:15;;;;;;;;;;;;;;;;;;4921593;29;20001;-77
2023/02/18 10:37:42;;;;;;;;;;;;;;;;;;4921907;29;19923;-77
2023/02/18 10:40:08;;;;;;;;;;;;;;;;;;4920991;29;19927;-77
2023/02/18 10:42:34;;;;;;;;;;;;;;;;;;4909325;29;20542;-78
2023/02/18 10:45:01;;;;;;;;;;;;;;;;;;4904500;29;19923;-78
2023/02/18 10:47:27;;;;;;;;;;;;;;;;;;4923300;29;19931;-78
2023/02/18 10:49:53;;;;;;;;;;;;;;;;;;4935662;29;20451;-77
2023/02/18 10:52:19;;;;;;;;;;;;;;;;;;4930058;29;20307;-76
2023/02/18 10:54:46;;;;;;;;;;;;;;;;;;4920308;29;19943;-77
2023/02/18 10:57:12;;;;;;;;;;;;;;;;;;4911502;29;19937;-76
2023/02/18 10:59:38;;;;;;;;;;;;;;;;;;4910395;29;20434;-75
2023/02/18 11:02:04;;;;;;;;;;;;;;;;;;4909185;29;20018;-75
2023/02/18 11:04:31;;;;;;;;;;;;;;;;;;4921980;29;20482;-75
2023/02/18 11:06:57;;;;;;;;;;;;;;;;;;4894154;29;19927;-76
2023/02/18 11:09:23;;;;;;;;;;;;;;;;;;4908574;29;19923;-75
2023/02/18 11:11:49;;;;;;;;;;;;;;;;;;4903158;29;20414;-76
2023/02/18 11:14:16;;;;;;;;;;;;;;;;;;4926514;29;19930;-75
2023/02/18 11:16:42;;;;;;;;;;;;;;;;;;4905811;29;19919;-75
2023/02/18 11:19:08;;;;;;;;;;;;;;;;;;4912351;29;19931;-75
2023/02/18 11:21:34;;;;;;;;;;;;;;;;;;4910415;29;19918;-74
2023/02/18 11:24:01;;;;;;;;;;;;;;;;;;4904544;29;19922;-74
2023/02/18 11:26:28;;;;;;;;;;;;;;;;;;4896743;29;20379;-75
2023/02/18 11:28:54;;;;;;;;;;;;;;;;;;4899284;29;19931;-75
2023/02/18 11:31:20;;;;;;;;;;;;;;;;;;4913871;29;20500;-74
2023/02/18 11:33:46;;;;;;;;;;;;;;;;;;4912040;29;19923;-74
2023/02/18 11:36:14;;;;;;;;;;;;;;;;;;4909943;29;19927;-75
2023/02/18 11:38:40;;;;;;;;;;;;;;;;;;4921641;29;19942;-75
2023/02/18 11:41:06;;;;;;;;;;;;;;;;;;4907462;29;20343;-75
2023/02/18 11:43:32;;;;;;;;;;;;;;;;;;4903037;29;19942;-75
2023/02/18 11:45:59;;;;;;;;;;;;;;;;;;4922303;29;20260;-75
2023/02/18 11:48:25;;;;;;;;;;;;;;;;;;4894731;29;20027;-76
2023/02/18 11:50:51;;;;;;;;;;;;;;;;;;4926728;29;19919;-76
2023/02/18 11:53:17;;;;;;;;;;;;;;;;;;4908862;29;20010;-75
2023/02/18 11:55:44;;;;;;;;;;;;;;;;;;4908347;29;19923;-75
2023/02/18 11:58:10;;;;;;;;;;;;;;;;;;4908873;29;19927;-75
2023/02/18 12:00:36;;;;;;;;;;;;;;;;;;4907334;29;19967;-75
2023/02/18 12:03:02;;;;;;;;;;;;;;;;;;4918933;29;19927;-75
2023/02/18 12:05:29;;;;;;;;;;;;;;;;;;4894688;29;19925;-75
2023/02/18 12:07:55;;;;;;;;;;;;;;;;;;4906258;29;20315;-75
2023/02/18 12:10:21;;;;;;;;;;;;;;;;;;4909929;29;20427;-76
2023/02/18 12:12:48;;;;;;;;;;;;;;;;;;4909681;29;19923;-75
2023/02/18 12:15:14;;;;;;;;;;;;;;;;;;4911360;29;19966;-75
2023/02/18 12:17:40;;;;;;;;;;;;;;;;;;4919573;29;19970;-76
2023/02/18 12:20:06;;;;;;;;;;;;;;;;;;4906120;29;19918;-76
2023/02/18 12:22:33;;;;;;;;;;;;;;;;;;4906234;29;20272;-75
2023/02/18 12:24:59;;;;;;;;;;;;;;;;;;4937535;28;19962;-75
2023/02/18 12:27:25;;;;;;;;;;;;;;;;;;4909687;29;19930;-76
2023/02/18 12:29:51;;;;;;;;;;;;;;;;;;4907888;29;19943;-78
2023/02/18 12:32:17;;;;;;;;;;;;;;;;;;4904184;29;19922;-76
2023/02/18 12:34:44;;;;;;;;;;;;;;;;;;4896354;29;21082;-77
2023/02/18 12:37:10;;;;;;;;;;;;;;;;;;4921628;29;19918;-76
2023/02/18 12:39:36;;;;;;;;;;;;;;;;;;4916915;29;19982;-76
2023/02/18 12:42:02;;;;;;;;;;;;;;;;;;4899041;29;19923;-77
2023/02/18 12:44:28;;;;;;;;;;;;;;;;;;4899709;29;19927;-77
2023/02/18 12:46:57;;;;;;;;;;;;;;;;;;4919980;29;20010;-77
2023/02/18 12:49:24;;;;;;;;;;;;;;;;;;4920208;29;20371;-77
2023/02/18 12:51:50;;;;;;;;;;;;;;;;;;4902803;29;19926;-77
2023/02/18 12:54:16;;;;;;;;;;;;;;;;;;4900266;29;20057;-77
2023/02/18 12:56:42;;;;;;;;;;;;;;;;;;4919226;29;19931;-77
2023/02/18 12:59:09;;;;;;;;;;;;;;;;;;4920459;29;20013;-77
2023/02/18 13:01:35;;;;;;;;;;;;;;;;;;4901212;29;19923;-77
2023/02/18 13:04:02;;;;;;;;;;;;;;;;;;4920319;29;20356;-77
2023/02/18 13:06:29;;;;;;;;;;;;;;;;;;4918998;29;20037;-77
2023/02/18 13:08:55;;;;;;;;;;;;;;;;;;4903685;29;20532;-77
2023/02/18 13:11:21;;;;;;;;;;;;;;;;;;4930721;29;19950;-77
2023/02/18 13:13:47;;;;;;;;;;;;;;;;;;4920134;29;19996;-77
2023/02/18 13:16:13;;;;;;;;;;;;;;;;;;4919021;29;19970;-76
2023/02/18 13:18:40;;;;;;;;;;;;;;;;;;4887796;29;19934;-77
2023/02/18 13:21:06;;;;;;;;;;;;;;;;;;4901974;29;19938;-77
2023/02/18 13:23:32;;;;;;;;;;;;;;;;;;4929643;29;19973;-77
2023/02/18 13:25:58;;;;;;;;;;;;;;;;;;4903808;29;19938;-77
2023/02/18 13:28:25;;;;;;;;;;;;;;;;;;4916957;29;19942;-77
2023/02/18 13:30:54;;;;;;;;;;;;;;;;;;4917946;29;19978;-77
2023/02/18 13:33:20;;;;;;;;;;;;;;;;;;4896863;29;19926;-77
2023/02/18 13:35:46;;;;;;;;;;;;;;;;;;4902755;29;19933;-77
2023/02/18 13:38:13;;;;;;;;;;;;;;;;;;4904227;29;19946;-78
2023/02/18 13:40:39;;;;;;;;;;;;;;;;;;4916068;29;19923;-77
2023/02/18 13:43:05;;;;;;;;;;;;;;;;;;4902428;29;20444;-77
2023/02/18 13:45:31;;;;;;;;;;;;;;;;;;4902722;29;19955;-76
2023/02/18 13:47:58;;;;;;;;;;;;;;;;;;4920776;29;20439;-76
2023/02/18 13:50:24;;;;;;;;;;;;;;;;;;4918994;29;19926;-74
2023/02/18 13:52:50;;;;;;;;;;;;;;;;;;4904236;29;19923;-75
2023/02/18 13:55:17;;;;;;;;;;;;;;;;;;4891750;29;20392;-75
2023/02/18 13:57:43;;;;;;;;;;;;;;;;;;4922448;29;19922;-76
2023/02/18 14:00:09;;;;;;;;;;;;;;;;;;4906471;29;19931;-76
2023/02/18 14:02:35;;;;;;;;;;;;;;;;;;4889015;29;19931;-76
2023/02/18 14:05:01;;;;;;;;;;;;;;;;;;4906862;29;19954;-75
2023/02/18 14:07:30;;;;;;;;;;;;;;;;;;4903997;29;20295;-76
2023/02/18 14:09:56;;;;;;;;;;;;;;;;;;4921677;29;19919;-76
2023/02/18 14:12:22;;;;;;;;;;;;;;;;;;4904540;29;20368;-76
2023/02/18 14:14:48;;;;;;;;;;;;;;;;;;4938053;28;19970;-76
2023/02/18 14:17:15;;;;;;;;;;;;;;;;;;4905793;29;19922;-76
2023/02/18 14:19:41;;;;;;;;;;;;;;;;;;4922010;29;19946;-75
2023/02/18 14:22:07;;;;;;;;;;;;;;;;;;4923409;29;20573;-78
2023/02/18 14:24:34;;;;;;;;;;;;;;;;;;4920023;29;20729;-76
2023/02/18 14:27:00;;;;;;;;;;;;;;;;;;4904079;29;19922;-75
2023/02/18 14:29:26;;;;;;;;;;;;;;;;;;4905320;29;19934;-76
2023/02/18 14:31:53;;;;;;;;;;;;;;;;;;4901409;29;19919;-76
2023/02/18 14:34:20;;;;;;;;;;;;;;;;;;4901156;29;19953;-77
2023/02/18 14:36:47;;;;;;;;;;;;;;;;;;4889366;29;19950;-81
2023/02/18 14:39:13;;;;;;;;;;;;;;;;;;4909002;29;20307;-81
2023/02/18 14:41:39;;;;;;;;;;;;;;;;;;4889942;29;19930;-80
2023/02/18 14:44:05;;;;;;;;;;;;;;;;;;4893467;29;19927;-81
2023/02/18 14:46:32;;;;;;;;;;;;;;;;;;4903641;29;19920;-81
2023/02/18 14:48:58;;;;;;;;;;;;;;;;;;4895274;29;19926;-81
2023/02/18 14:51:24;;;;;;;;;;;;;;;;;;4888601;29;19926;-82
2023/02/18 14:53:51;;;;;;;;;;;;;;;;;;4892983;29;20758;-80
2023/02/18 14:56:17;;;;;;;;;;;;;;;;;;4903994;29;19919;-81
2023/02/18 14:58:43;;;;;;;;;;;;;;;;;;4901795;29;19927;-82
2023/02/18 15:01:09;;;;;;;;;;;;;;;;;;4898572;29;19915;-82
2023/02/18 15:03:35;;;;;;;;;;;;;;;;;;4893739;29;19923;-81
2023/02/18 15:06:02;;;;;;;;;;;;;;;;;;4932766;29;20446;-82
2023/02/18 15:08:28;;;;;;;;;;;;;;;;;;4899500;29;19938;-81
2023/02/18 15:10:55;;;;;;;;;;;;;;;;;;4934791;29;19919;-81
2023/02/18 15:13:21;;;;;;;;;;;;;;;;;;4893909;29;19919;-80
2023/02/18 15:15:47;;;;;;;;;;;;;;;;;;4905480;29;19985;-81
2023/02/18 15:18:14;;;;;;;;;;;;;;;;;;4923029;29;19998;-80
2023/02/18 15:20:40;;;;;;;;;;;;;;;;;;4896171;29;19927;-80
2023/02/18 15:23:06;;;;;;;;;;;;;;;;;;4908564;29;19919;-81
2023/02/18 15:25:33;;;;;;;;;;;;;;;;;;4931277;29;19925;-80
2023/02/18 15:27:59;;;;;;;;;;;;;;;;;;4915227;29;20476;-80
2023/02/18 15:30:27;;;;;;;;;;;;;;;;;;4888250;29;19934;-82
2023/02/18 15:32:53;;;;;;;;;;;;;;;;;;4902167;29;19923;-79
2023/02/18 15:35:19;;;;;;;;;;;;;;;;;;4906599;29;19923;-79
2023/02/18 15:37:46;;;;;;;;;;;;;;;;;;4918886;29;20028;-80
2023/02/18 15:40:12;;;;;;;;;;;;;;;;;;4896299;29;19990;-81
2023/02/18 15:42:38;;;;;;;;;;;;;;;;;;4891208;29;20596;-81
2023/02/18 15:45:06;;;;;;;;;;;;;;;;;;4932390;29;19923;-81
2023/02/18 15:47:33;;;;;;;;;;;;;;;;;;4900392;29;19926;-77
2023/02/18 15:50:00;;;;;;;;;;;;;;;;;;4931801;29;19923;-79
2023/02/18 15:52:26;;;;;;;;;;;;;;;;;;4927526;29;20436;-78
2023/02/18 15:54:53;;;;;;;;;;;;;;;;;;4903520;29;19945;-80
2023/02/18 15:57:19;;;;;;;;;;;;;;;;;;4902818;29;19927;-80
2023/02/18 15:59:45;;;;;;;;;;;;;;;;;;4907246;29;19922;-80
2023/02/18 16:02:11;;;;;;;;;;;;;;;;;;4919675;29;20469;-80
2023/02/18 16:04:38;;;;;;;;;;;;;;;;;;4917224;29;19929;-80
2023/02/18 16:07:04;;;;;;;;;;;;;;;;;;4903187;29;20379;-80
2023/02/18 16:09:30;;;;;;;;;;;;;;;;;;4916841;29;19980;-80
2023/02/18 16:12:00;;;;;;;;;;;;;;;;;;4917973;29;19918;-81
2023/02/18 16:14:27;;;;;;;;;;;;;;;;;;4934686;29;20386;-80
2023/02/18 16:16:53;;;;;;;;;;;;;;;;;;4933114;29;19918;-82
2023/02/18 16:19:19;;;;;;;;;;;;;;;;;;4910266;29;19978;-85
2023/02/18 16:21:46;;;;;;;;;;;;;;;;;;4909152;29;19925;-82
2023/02/18 16:24:12;;;;;;;;;;;;;;;;;;4941053;29;19962;-82
2023/02/18 16:26:38;;;;;;;;;;;;;;;;;;4907632;29;19922;-83
2023/02/18 16:29:04;;;;;;;;;;;;;;;;;;4926807;29;19930;-82
2023/02/18 16:31:31;;;;;;;;;;;;;;;;;;4902533;29;19985;-81
2023/02/18 16:33:57;;;;;;;;;;;;;;;;;;4927832;29;19970;-78
2023/02/18 16:36:23;;;;;;;;;;;;;;;;;;4936630;29;20764;-76
2023/02/18 16:38:49;;;;;;;;;;;;;;;;;;4932757;29;20382;-77
2023/02/18 16:41:17;;;;;;;;;;;;;;;;;;4910829;29;20374;-78
2023/02/18 16:43:43;;;;;;;;;;;;;;;;;;4920535;29;20270;-80
2023/02/18 16:46:10;;;;;;;;;;;;;;;;;;4939258;28;19957;-78
2023/02/18 16:48:36;;;;;;;;;;;;;;;;;;4915546;29;20489;-80
2023/02/18 16:51:02;;;;;;;;;;;;;;;;;;4911358;29;20280;-79
2023/02/18 16:53:28;;;;;;;;;;;;;;;;;;4926037;29;19961;-79
2023/02/18 16:55:55;;;;;;;;;;;;;;;;;;4922351;29;20001;-79
2023/02/18 16:58:21;;;;;;;;;;;;;;;;;;4927630;29;19915;-78
2023/02/18 17:00:47;;;;;;;;;;;;;;;;;;4907135;29;19919;-79
2023/02/18 17:03:13;;;;;;;;;;;;;;;;;;4906859;29;19922;-78
2023/02/18 17:05:40;;;;;;;;;;;;;;;;;;4909276;29;20131;-78
2023/02/18 17:08:06;;;;;;;;;;;;;;;;;;4923753;29;19974;-78
2023/02/18 17:10:32;;;;;;;;;;;;;;;;;;4921289;29;19923;-80
2023/02/18 17:12:59;;;;;;;;;;;;;;;;;;4936085;29;19914;-80
2023/02/18 17:15:25;;;;;;;;;;;;;;;;;;4924393;28;19927;-81
2023/02/18 17:17:51;;;;;;;;;;;;;;;;;;4901293;29;19930;-85
2023/02/18 17:20:18;;;;;;;;;;;;;;;;;;4924242;29;19923;-81
2023/02/18 17:22:44;;;;;;;;;;;;;;;;;;4905849;29;19925;-81
2023/02/18 17:25:10;;;;;;;;;;;;;;;;;;4910818;29;19966;-81
2023/02/18 17:27:37;;;;;;;;;;;;;;;;;;4924240;29;19947;-80
2023/02/18 17:30:03;;;;;;;;;;;;;;;;;;4908696;29;19939;-84
2023/02/18 17:32:29;;;;;;;;;;;;;;;;;;4917473;29;19919;-81
2023/02/18 17:34:55;;;;;;;;;;;;;;;;;;4921894;29;19925;-81
2023/02/18 17:37:22;;;;;;;;;;;;;;;;;;4917095;29;19919;-81
2023/02/18 17:39:48;;;;;;;;;;;;;;;;;;4914849;28;20359;-81
2023/02/18 17:42:15;;;;;;;;;;;;;;;;;;4934235;28;19929;-81
2023/02/18 17:44:41;;;;;;;;;;;;;;;;;;4919696;29;19919;-81